Time;durP1;ratioP1;P1;durP2;ratioP2;P2;SDS_P1;SDS_P2;PMS_P1;PMS_P2;Temp;Humidity;BMP_temperature;BMP_pressure;BME280_temperature;BME280_humidity;BME280_pressure;Samples;Min_cycle;Max_cycle;Signal;HPM_P1;HPM_P2
2024/04/22 00:00:03;;;;;;;;;;;5.90;99.90;;;6.44;60.75;101381.06;5529840;25;20401;-83
2024/04/22 00:02:34;;;;;;;;;;;5.80;99.90;;;6.42;60.70;101374.25;5530787;25;19928;-83
2024/04/22 00:05:03;;;;;;;;;;;5.90;99.90;;;6.41;60.49;101370.78;5529955;26;19935;-83
2024/04/22 00:07:29;;;;;;;;;;;5.90;99.90;;;6.41;60.63;101369.94;5528954;26;20386;-83
2024/04/22 00:10:00;;;;;;;;;;;5.90;99.90;;;6.39;60.80;101367.47;5529080;26;20419;-83
2024/04/22 00:12:26;;;;;;;;;;;5.80;99.90;;;6.39;61.09;101374.56;5502715;26;19935;-83
2024/04/22 00:14:55;;;;;;;;;;;5.80;99.90;;;6.37;60.75;101366.78;5492951;26;20018;-83
2024/04/22 00:17:21;;;;;;;;;;;5.80;99.90;;;6.38;61.03;101357.00;5492792;26;19932;-83
2024/04/22 00:19:53;;;;;;;;;;;5.80;99.90;;;6.39;60.93;101354.22;5493207;26;20398;-83
2024/04/22 00:22:19;;;;;;;;;;;5.80;99.90;;;6.38;60.98;101357.84;5493005;26;20283;-83
2024/04/22 00:24:48;;;;;;;;;;;5.90;99.90;;;6.36;61.13;101359.81;5494509;26;19931;-83
2024/04/22 00:27:17;;;;;;;;;;;5.80;99.90;;;6.37;61.22;101358.81;5495398;26;19931;-83
2024/04/22 00:29:45;;;;;;;;;;;5.70;99.90;;;6.38;61.28;101351.72;5492929;26;19935;-83
2024/04/22 00:32:12;;;;;;;;;;;5.80;99.90;;;6.38;61.11;101354.34;5492780;26;19928;-83
2024/04/22 00:34:41;;;;;;;;;;;5.80;99.90;;;6.33;61.04;101351.38;5492659;26;19935;-83
2024/04/22 00:37:07;;;;;;;;;;;5.80;99.90;;;6.30;61.41;101354.34;5492596;26;19928;-83
2024/04/22 00:39:36;;;;;;;;;;;5.70;99.90;;;6.27;61.72;101350.19;5492614;26;19935;-83
2024/04/22 00:42:02;;;;;;;;;;;5.70;99.90;;;6.26;60.91;101348.53;5492726;26;19947;-83
2024/04/22 00:44:34;;;;;;;;;;;5.70;99.90;;;6.28;61.21;101343.91;5493113;26;19935;-83
2024/04/22 00:47:00;;;;;;;;;;;5.70;99.90;;;6.27;60.91;101344.06;5492599;26;19940;-83
2024/04/22 00:49:29;;;;;;;;;;;5.70;99.90;;;6.23;61.19;101334.78;5492273;26;19996;-83
2024/04/22 00:51:55;;;;;;;;;;;5.60;99.90;;;6.16;61.51;101346.03;5492597;26;19928;-83
2024/04/22 00:54:24;;;;;;;;;;;5.60;99.90;;;6.14;61.75;101349.81;5492429;26;19934;-83
2024/04/22 00:56:50;;;;;;;;;;;5.60;99.90;;;6.12;61.54;101352.63;5491592;26;19927;-83
2024/04/22 00:59:19;;;;;;;;;;;5.90;99.90;;;6.10;61.60;101351.97;5493760;26;19928;-83
2024/04/22 01:01:48;;;;;;;;;;;5.60;99.90;;;6.09;61.59;101352.94;5492119;26;20295;-83
2024/04/22 01:04:16;;;;;;;;;;;5.50;99.90;;;6.08;61.47;101339.88;5492344;26;19960;-83
2024/04/22 01:06:43;;;;;;;;;;;5.60;99.90;;;6.08;61.73;101347.81;5528143;26;19928;-83
2024/04/22 01:09:13;;;;;;;;;;;5.50;99.90;;;6.05;62.01;101345.47;5527503;26;19927;-83
2024/04/22 01:11:39;;;;;;;;;;;5.50;99.90;;;6.04;62.09;101354.41;5525880;26;20446;-83
2024/04/22 01:14:08;;;;;;;;;;;5.50;99.90;;;6.01;62.66;101339.69;5528705;26;19928;-83
2024/04/22 01:16:34;;;;;;;;;;;5.40;99.90;;;6.01;62.66;101344.16;5525527;26;19932;-83
2024/04/22 01:19:06;;;;;;;;;;;5.50;99.90;;;6.01;62.19;101342.34;5528791;26;19927;-83
2024/04/22 01:21:34;;;;;;;;;;;5.50;99.90;;;6.02;62.29;101341.34;5528817;25;19927;-83
2024/04/22 01:24:03;;;;;;;;;;;5.50;99.90;;;6.02;62.38;101338.69;5528566;25;19928;-83
2024/04/22 01:26:29;;;;;;;;;;;5.50;99.90;;;6.02;62.26;101336.03;5504015;25;20354;-83
2024/04/22 01:28:58;;;;;;;;;;;5.50;99.90;;;6.00;62.25;101331.88;5489811;26;20336;-83
2024/04/22 01:31:24;;;;;;;;;;;5.40;99.90;;;5.98;62.35;101334.69;5492014;26;20394;-83
2024/04/22 01:33:53;;;;;;;;;;;5.40;99.90;;;5.97;61.94;101334.88;5491744;26;19928;-83
2024/04/22 01:36:19;;;;;;;;;;;5.40;99.90;;;5.93;62.14;101331.72;5491409;26;19928;-83
2024/04/22 01:38:51;;;;;;;;;;;5.40;99.90;;;5.92;62.26;101322.94;5489933;26;19928;-83
2024/04/22 01:41:17;;;;;;;;;;;5.40;99.90;;;5.95;61.86;101327.06;5491286;26;19935;-83
2024/04/22 01:43:46;;;;;;;;;;;5.30;99.90;;;5.87;62.10;101330.50;5491514;26;20068;-83
2024/04/22 01:46:12;;;;;;;;;;;5.30;99.90;;;5.83;62.56;101325.69;5496932;26;20390;-83
2024/04/22 01:48:41;;;;;;;;;;;5.20;99.90;;;5.83;61.94;101329.16;5491794;26;20024;-83
2024/04/22 01:51:07;;;;;;;;;;;5.20;99.90;;;5.84;62.52;101322.88;5493849;26;19928;-83
2024/04/22 01:53:36;;;;;;;;;;;5.20;99.90;;;5.85;61.94;101323.69;5491566;26;19936;-83
2024/04/22 01:56:05;;;;;;;;;;;5.30;99.90;;;5.84;61.77;101322.03;5491444;26;19935;-83
2024/04/22 01:58:33;;;;;;;;;;;5.20;99.90;;;5.78;61.95;101315.56;5491411;26;19957;-83
2024/04/22 02:01:03;;;;;;;;;;;5.20;99.90;;;5.73;61.92;101317.88;5503020;26;19935;-83
2024/04/22 02:03:32;;;;;;;;;;;5.20;99.90;;;5.75;62.26;101328.28;5490933;26;19928;-83
2024/04/22 02:05:58;;;;;;;;;;;5.10;99.90;;;5.72;62.51;101324.16;5491771;26;19928;-83
2024/04/22 02:08:27;;;;;;;;;;;5.00;99.90;;;5.69;62.47;101320.00;5491296;26;19938;-83
2024/04/22 02:10:53;;;;;;;;;;;5.10;99.90;;;5.71;62.31;101324.28;5516107;26;19934;-83
2024/04/22 02:13:25;;;;;;;;;;;5.10;99.90;;;5.66;62.35;101322.97;5528198;26;19995;-83
2024/04/22 02:15:51;;;;;;;;;;;5.10;99.90;;;5.70;62.50;101326.09;5528059;26;19927;-83
2024/04/22 02:18:20;;;;;;;;;;;5.10;99.90;;;5.71;62.55;101321.63;5503699;26;20402;-83
2024/04/22 02:20:46;;;;;;;;;;;5.10;99.90;;;5.68;62.53;101325.44;5491519;26;19940;-83
2024/04/22 02:23:15;;;;;;;;;;;5.10;99.90;;;5.66;62.67;101317.69;5494614;26;19997;-83
2024/04/22 02:25:41;;;;;;;;;;;5.10;99.90;;;5.65;62.90;101323.94;5495012;26;19928;-83
2024/04/22 02:28:10;;;;;;;;;;;5.00;99.90;;;5.66;63.04;101317.69;5494644;26;19935;-83
2024/04/22 02:30:39;;;;;;;;;;;5.10;99.90;;;5.66;62.78;101312.38;5494430;26;19939;-83
2024/04/22 02:33:08;;;;;;;;;;;5.10;99.90;;;5.63;63.07;101314.50;5494533;26;20394;-83
2024/04/22 02:35:34;;;;;;;;;;;5.00;99.90;;;5.58;63.29;101320.28;5530756;26;19935;-83
2024/04/22 02:38:03;;;;;;;;;;;5.00;99.90;;;5.54;63.06;101315.44;5507127;25;19931;-83
2024/04/22 02:40:29;;;;;;;;;;;5.00;99.90;;;5.56;62.79;101308.16;5492245;26;20271;-82
2024/04/22 02:42:58;;;;;;;;;;;5.00;99.90;;;5.56;63.04;101303.75;5498212;26;20399;-83
2024/04/22 02:45:25;;;;;;;;;;;5.00;99.90;;;5.53;63.14;101309.34;5493968;26;19998;-83
2024/04/22 02:47:56;;;;;;;;;;;5.00;99.90;;;5.51;63.69;101306.00;5493849;26;19928;-83
2024/04/22 02:50:22;;;;;;;;;;;5.00;99.90;;;5.51;63.48;101302.53;5493987;26;19928;-83
2024/04/22 02:52:51;;;;;;;;;;;4.90;99.90;;;5.51;63.37;101310.47;5522526;26;19927;-83
2024/04/22 02:55:17;;;;;;;;;;;4.90;99.90;;;5.51;63.58;101311.28;5494451;26;20017;-83
2024/04/22 02:57:46;;;;;;;;;;;5.00;99.90;;;5.51;64.33;101305.16;5493506;26;19956;-83
2024/04/22 03:00:13;;;;;;;;;;;5.00;99.90;;;5.53;63.59;101297.91;5495835;26;20399;-83
2024/04/22 03:02:42;;;;;;;;;;;5.00;99.90;;;5.54;63.75;101308.34;5495718;26;20001;-83
2024/04/22 03:05:10;;;;;;;;;;;5.10;99.90;;;5.53;64.04;101313.78;5529666;26;19928;-83
2024/04/22 03:07:39;;;;;;;;;;;4.90;99.90;;;5.52;64.00;101301.56;5529974;25;19927;-83
2024/04/22 03:10:06;;;;;;;;;;;5.00;99.90;;;5.55;63.89;101301.22;5494092;26;20267;-83
2024/04/22 03:12:35;;;;;;;;;;;5.00;99.90;;;5.54;63.91;101294.28;5501200;26;20467;-83
2024/04/22 03:15:02;;;;;;;;;;;5.00;99.90;;;5.51;63.60;101290.13;5493456;26;20394;-83
2024/04/22 03:17:31;;;;;;;;;;;5.30;99.90;;;5.52;63.83;101294.44;5495705;26;19928;-83
2024/04/22 03:19:57;;;;;;;;;;;4.90;99.90;;;5.51;63.58;101294.59;5493454;26;20522;-83
2024/04/22 03:22:29;;;;;;;;;;;4.90;99.90;;;5.48;63.94;101290.47;5493151;26;19938;-83
2024/04/22 03:24:55;;;;;;;;;;;4.90;99.90;;;5.45;63.73;101290.75;5495134;26;19928;-83
2024/04/22 03:27:23;;;;;;;;;;;4.90;99.90;;;5.43;63.94;101290.94;5493463;26;19996;-83
2024/04/22 03:29:50;;;;;;;;;;;4.90;99.90;;;5.43;64.41;101284.81;5493449;26;20396;-83
2024/04/22 03:32:18;;;;;;;;;;;4.90;99.90;;;5.43;64.08;101280.34;5492335;26;19960;-83
2024/04/22 03:34:44;;;;;;;;;;;4.90;99.90;;;5.46;64.35;101279.19;5493603;26;20274;-83
2024/04/22 03:37:13;;;;;;;;;;;4.90;99.90;;;5.45;64.44;101277.53;5494959;26;19939;-83
2024/04/22 03:39:45;;;;;;;;;;;4.90;99.90;;;5.42;64.72;101276.03;5493329;26;19952;-83
2024/04/22 03:42:13;;;;;;;;;;;4.90;99.90;;;5.46;64.52;101281.00;5493145;26;20415;-83
2024/04/22 03:44:42;;;;;;;;;;;4.90;99.90;;;5.46;64.54;101275.72;5521953;26;19927;-82
2024/04/22 03:49:56;;;;;;;;;;;4.90;99.90;;;5.46;65.10;101271.25;5531707;26;19927;-83
2024/04/22 03:52:25;;;;;;;;;;;4.90;99.90;;;5.48;64.87;101277.22;5531930;26;19927;-84
2024/04/22 03:54:57;;;;;;;;;;;4.90;99.90;;;5.49;64.56;101267.47;5531431;25;19927;-84
2024/04/22 03:57:26;;;;;;;;;;;5.00;99.90;;;5.48;64.91;101271.13;5531703;26;20279;-82
2024/04/22 03:59:54;;;;;;;;;;;4.90;99.90;;;5.46;64.94;101265.13;5531995;26;19927;-83
2024/04/22 04:02:20;;;;;;;;;;;4.90;99.90;;;5.44;65.05;101273.25;5532169;25;19927;-82
2024/04/22 04:04:49;;;;;;;;;;;4.90;99.90;;;5.43;65.25;101277.69;5532654;26;19938;-83
2024/04/22 04:07:15;;;;;;;;;;;4.80;99.90;;;5.43;65.19;101274.22;5529158;26;19928;-82
2024/04/22 04:09:44;;;;;;;;;;;5.00;99.90;;;5.43;64.94;101271.59;5532063;26;19939;-82
2024/04/22 04:12:13;;;;;;;;;;;4.90;99.90;;;5.42;64.88;101275.22;5531765;26;19966;-82
2024/04/22 04:14:42;;;;;;;;;;;4.90;99.90;;;5.42;65.09;101283.16;5531634;25;19938;-82
2024/04/22 04:17:08;;;;;;;;;;;4.90;99.90;;;5.41;65.06;101277.00;5530912;26;19928;-83
2024/04/22 04:19:37;;;;;;;;;;;4.90;99.90;;;5.39;65.23;101265.78;5529484;26;20351;-85
2024/04/22 04:22:03;;;;;;;;;;;4.90;99.90;;;5.39;65.10;101284.28;5530837;26;19934;-83
2024/04/22 04:24:32;;;;;;;;;;;4.90;99.90;;;5.38;65.27;101279.16;5510446;25;19928;-85
2024/04/22 04:26:58;;;;;;;;;;;4.90;99.90;;;5.38;65.34;101280.00;5495823;26;19928;-85
2024/04/22 04:29:30;;;;;;;;;;;4.90;99.90;;;5.37;65.46;101282.81;5493319;26;19928;-81
2024/04/22 04:31:56;;;;;;;;;;;4.90;99.90;;;5.39;65.43;101280.81;5494319;26;19936;-84
2024/04/22 04:34:24;;;;;;;;;;;5.00;99.90;;;5.38;65.21;101280.00;5493205;26;19935;-83
2024/04/22 04:36:51;;;;;;;;;;;4.90;99.90;;;5.37;65.59;101275.69;5494877;26;19939;-85
2024/04/22 04:39:19;;;;;;;;;;;4.90;99.90;;;5.39;65.95;101270.22;5495385;26;19993;-84
2024/04/22 04:41:46;;;;;;;;;;;4.90;99.90;;;5.41;65.82;101273.53;5497029;26;19928;-84
2024/04/22 04:44:14;;;;;;;;;;;4.90;99.90;;;5.41;66.15;101279.66;5495198;26;19934;-85
2024/04/22 04:46:43;;;;;;;;;;;4.90;99.90;;;5.43;66.30;101274.22;5494770;26;19928;-84
2024/04/22 04:49:12;;;;;;;;;;;4.90;99.90;;;5.45;66.09;101279.34;5494192;26;19934;-84
2024/04/22 04:51:40;;;;;;;;;;;4.90;99.90;;;5.46;65.93;101275.72;5495658;26;19935;-84
2024/04/22 04:54:08;;;;;;;;;;;5.00;99.90;;;5.46;66.39;101288.94;5495165;26;20408;-84
2024/04/22 04:56:35;;;;;;;;;;;5.00;99.90;;;5.47;66.23;101283.50;5493895;26;19928;-83
2024/04/22 04:59:03;;;;;;;;;;;5.00;99.90;;;5.48;66.50;101279.88;5498080;26;19974;-84
2024/04/22 05:01:30;;;;;;;;;;;5.00;99.90;;;5.50;66.61;101288.47;5506876;26;20379;-84
2024/04/22 05:04:02;;;;;;;;;;;5.00;99.90;;;5.51;66.53;101276.91;5507882;26;19944;-84
2024/04/22 05:06:29;;;;;;;;;;;5.00;99.90;;;5.53;66.77;101282.88;5495831;26;19928;-82
2024/04/22 05:08:58;;;;;;;;;;;5.00;99.90;;;5.55;66.97;101277.41;5505126;26;19956;-85
2024/04/22 05:11:24;;;;;;;;;;;5.20;99.90;;;5.57;67.15;101278.09;5493686;26;20416;-84
2024/04/22 05:13:53;;;;;;;;;;;5.10;99.90;;;5.57;67.22;101284.22;5492232;26;20271;-85
2024/04/22 05:16:20;;;;;;;;;;;5.10;99.90;;;5.57;67.06;101283.41;5495173;26;19929;-82
2024/04/22 05:18:48;;;;;;;;;;;5.10;99.90;;;5.57;67.26;101286.88;5496249;26;19928;-82
2024/04/22 05:21:17;;;;;;;;;;;5.10;99.90;;;5.59;67.31;101284.88;5508894;26;19931;-83
2024/04/22 05:23:49;;;;;;;;;;;5.20;99.90;;;5.60;67.38;101277.78;5499191;26;19976;-81
2024/04/22 05:26:15;;;;;;;;;;;5.20;99.90;;;5.62;67.92;101281.94;5506682;26;19935;-82
2024/04/22 05:28:45;;;;;;;;;;;5.20;99.90;;;5.66;67.66;101287.72;5527371;26;19950;-83
2024/04/22 05:31:12;;;;;;;;;;;5.20;99.90;;;5.68;67.90;101288.41;5530104;25;20390;-83
2024/04/22 05:36:28;;;;;;;;;;;5.30;99.90;;;5.76;68.04;101284.94;5528151;25;20320;-83
2024/04/22 05:38:58;;;;;;;;;;;5.40;99.90;;;5.78;68.23;101291.75;5529602;26;19939;-83
2024/04/22 05:41:27;;;;;;;;;;;5.40;99.90;;;5.79;68.36;101287.28;5514151;26;20002;-83
2024/04/22 05:43:55;;;;;;;;;;;5.40;99.90;;;5.79;68.34;101285.47;5529626;25;19927;-83
2024/04/22 05:46:25;;;;;;;;;;;5.50;99.90;;;5.84;67.85;101288.44;5529484;26;19927;-83
2024/04/22 05:48:54;;;;;;;;;;;5.50;99.90;;;5.89;67.86;101298.56;5502750;26;19928;-82
2024/04/22 05:51:22;;;;;;;;;;;5.60;99.90;;;5.92;67.88;101293.81;5497811;26;19928;-83
2024/04/22 05:53:51;;;;;;;;;;;5.60;99.90;;;5.98;68.07;101294.16;5517578;26;19942;-83
2024/04/22 05:56:20;;;;;;;;;;;5.70;99.90;;;6.01;68.65;101301.78;5506328;26;19928;-83
2024/04/22 05:58:46;;;;;;;;;;;5.80;99.90;;;6.03;68.33;101290.03;5500429;26;19927;-83
2024/04/22 06:01:15;;;;;;;;;;;5.80;99.90;;;6.07;68.43;101293.19;5526747;26;20314;-83
2024/04/22 06:03:41;;;;;;;;;;;5.80;99.90;;;6.06;68.56;101289.72;5527926;25;19928;-82
2024/04/22 06:06:10;;;;;;;;;;;5.90;99.90;;;6.09;68.64;101283.25;5502911;25;19932;-83
2024/04/22 06:08:36;;;;;;;;;;;5.90;99.90;;;6.09;68.34;101284.09;5512634;26;20378;-83
2024/04/22 06:11:07;;;;;;;;;;;5.90;99.90;;;6.12;68.75;101286.44;5508430;25;20336;-83
2024/04/22 06:13:33;;;;;;;;;;;5.90;99.90;;;6.15;68.65;101282.63;5502067;26;19943;-82
2024/04/22 06:16:02;;;;;;;;;;;5.90;99.90;;;6.20;68.44;101290.94;5489402;26;19950;-83
2024/04/22 06:18:28;;;;;;;;;;;6.00;99.90;;;6.27;68.32;101283.16;5528075;26;20394;-85
2024/04/22 06:20:57;;;;;;;;;;;6.10;99.90;;;6.34;68.24;101287.63;5528321;25;19928;-87
2024/04/22 06:23:23;;;;;;;;;;;6.10;99.90;;;6.39;67.61;101273.88;5524078;26;19967;-87
2024/04/22 06:25:52;;;;;;;;;;;6.20;99.90;;;6.43;67.58;101278.69;5524472;26;19927;-88
2024/04/22 06:28:21;;;;;;;;;;;6.20;99.90;;;6.50;67.56;101276.22;5526982;26;19928;-88
2024/04/22 06:30:50;;;;;;;;;;;6.30;99.90;;;6.64;67.30;101275.56;5516161;25;19935;-86
2024/04/22 06:33:16;;;;;;;;;;;6.50;99.90;;;6.72;67.38;101272.91;5493141;26;20264;-84
2024/04/22 06:35:45;;;;;;;;;;;6.60;99.90;;;6.75;66.36;101274.41;5493470;26;20275;-84
2024/04/22 06:38:11;;;;;;;;;;;6.70;99.90;;;6.91;66.57;101274.38;5494470;26;19928;-84
2024/04/22 06:40:40;;;;;;;;;;;6.90;99.90;;;7.07;66.32;101273.53;5496512;26;19996;-83
2024/04/22 06:43:06;;;;;;;;;;;7.00;99.90;;;7.24;65.79;101271.69;5510592;26;19927;-84
2024/04/22 06:45:37;;;;;;;;;;;7.20;99.90;;;7.36;65.21;101269.50;5531716;25;19927;-85
2024/04/22 06:48:05;;;;;;;;;;;7.30;99.90;;;7.45;65.19;101269.28;5517560;25;19940;-85
2024/04/22 06:50:33;;;;;;;;;;;7.40;99.90;;;7.48;64.56;101265.50;5492283;26;19952;-83
2024/04/22 06:53:00;;;;;;;;;;;7.50;99.90;;;7.54;64.83;101270.09;5492758;26;19935;-85
2024/04/22 06:55:28;;;;;;;;;;;7.60;99.90;;;7.72;65.30;101269.88;5494760;26;20383;-85
2024/04/22 06:57:55;;;;;;;;;;;7.70;99.90;;;7.70;64.13;101266.56;5526373;26;20025;-85
2024/04/22 07:00:23;;;;;;;;;;;7.70;99.90;;;7.71;64.31;101258.44;5527301;25;19995;-84
2024/04/22 07:02:55;;;;;;;;;;;7.80;99.90;;;7.82;64.12;101264.34;5529115;26;20448;-85
2024/04/22 07:05:21;;;;;;;;;;;7.90;99.90;;;7.88;63.94;101263.66;5530452;25;19939;-85
2024/04/22 07:07:50;;;;;;;;;;;7.90;99.90;;;7.94;63.86;101260.28;5530609;26;19928;-85
2024/04/22 07:10:16;;;;;;;;;;;8.00;99.90;;;8.00;63.14;101257.78;5532286;25;19997;-85
2024/04/22 07:12:46;;;;;;;;;;;8.10;99.90;;;8.14;63.01;101260.69;5533698;26;19931;-85
2024/04/22 07:15:12;;;;;;;;;;;8.30;99.90;;;8.26;63.57;101262.75;5534759;26;19934;-85
2024/04/22 07:17:41;;;;;;;;;;;8.40;99.90;;;8.39;63.61;101264.03;5535373;26;19927;-84
2024/04/22 07:20:10;;;;;;;;;;;8.50;99.90;;;8.49;63.39;101256.63;5532011;26;19927;-85
2024/04/22 07:22:40;;;;;;;;;;;8.60;99.90;;;8.60;62.73;101250.91;5517876;26;19934;-85
2024/04/22 07:25:07;;;;;;;;;;;8.70;99.90;;;8.66;61.50;101254.69;5499672;26;19940;-85
2024/04/22 07:27:36;;;;;;;;;;;8.80;99.90;;;8.68;61.87;101248.16;5525452;26;19928;-85
2024/04/22 07:30:04;;;;;;;;;;;8.80;99.90;;;8.72;60.90;101244.16;5535466;25;19928;-85
2024/04/22 07:32:34;;;;;;;;;;;8.80;99.90;;;8.79;60.01;101244.28;5532222;26;19939;-85
2024/04/22 07:35:00;;;;;;;;;;;8.90;99.90;;;8.88;59.37;101245.00;5534314;25;19928;-85
2024/04/22 07:37:37;;;;;;;;;;;9.00;99.90;;;8.88;57.79;101242.34;5534027;25;19927;-85
2024/04/22 07:40:12;;;;;;;;;;;8.90;99.90;;;8.94;57.53;101234.47;5515644;26;19928;-85
2024/04/22 07:42:41;;;;;;;;;;;9.00;99.90;;;8.99;55.83;101239.25;5499996;26;20395;-85
2024/04/22 07:45:08;;;;;;;;;;;9.00;99.90;;;9.01;55.23;101242.56;5497195;26;19951;-85
2024/04/22 07:47:37;;;;;;;;;;;9.00;99.90;;;8.95;55.26;101230.81;5497979;26;19932;-85
2024/04/22 07:50:03;;;;;;;;;;;8.90;99.90;;;8.95;53.84;101237.97;5500550;26;19928;-85
2024/04/22 07:52:37;;;;;;;;;;;9.00;99.90;;;8.97;54.33;101235.94;5533293;26;20267;-86
2024/04/22 07:55:04;;;;;;;;;;;9.00;99.90;;;9.08;54.03;101239.97;5519405;26;20033;-85
2024/04/22 07:57:33;;;;;;;;;;;9.10;99.90;;;9.19;53.78;101243.03;5526748;25;19935;-85
2024/04/22 08:00:02;;;;;;;;;;;9.30;99.90;;;9.12;52.47;101234.13;5507666;26;19936;-85
2024/04/22 08:02:41;;;;;;;;;;;9.20;99.90;;;9.17;53.05;101231.72;5534796;26;19934;-84
2024/04/22 08:05:09;;;;;;;;;;;9.30;99.90;;;9.09;50.33;101237.16;5527377;26;20000;-85
2024/04/22 08:07:41;;;;;;;;;;;9.20;99.90;;;9.02;50.05;101241.53;5496864;26;19928;-85
2024/04/22 08:10:07;;;;;;;;;;;9.00;99.90;;;9.04;50.27;101247.53;5498010;26;19990;-84
2024/04/22 08:12:36;;;;;;;;;;;9.00;99.90;;;9.27;53.21;101248.28;5497530;26;19936;-85
2024/04/22 08:15:03;;;;;;;;;;;9.30;99.90;;;9.44;52.00;101242.75;5508383;26;20398;-85
2024/04/22 08:17:32;;;;;;;;;;;9.60;99.90;;;9.35;49.38;101246.53;5533479;25;19968;-85
2024/04/22 08:19:58;;;;;;;;;;;9.40;99.90;;;9.42;51.36;101234.13;5533512;26;20283;-85
2024/04/22 08:22:27;;;;;;;;;;;9.50;99.90;;;9.57;50.84;101242.13;5498329;25;20391;-85
2024/04/22 08:24:57;;;;;;;;;;;9.70;99.90;;;9.48;49.58;101228.06;5497099;26;20442;-85
2024/04/22 08:27:26;;;;;;;;;;;9.60;99.90;;;9.51;49.75;101244.47;5497430;26;19935;-85
2024/04/22 08:29:52;;;;;;;;;;;9.60;99.90;;;9.46;51.20;101238.06;5496151;26;20283;-85
2024/04/22 08:32:21;;;;;;;;;;;9.60;99.90;;;9.38;49.74;101230.19;5497203;26;19935;-85
2024/04/22 08:34:48;;;;;;;;;;;9.50;99.90;;;9.32;49.13;101242.41;5496182;26;19928;-85
2024/04/22 08:37:17;;;;;;;;;;;9.40;99.90;;;9.26;48.81;101233.28;5496619;26;19928;-85
2024/04/22 08:39:43;;;;;;;;;;;9.30;99.90;;;9.27;48.81;101229.66;5496574;26;20378;-85
2024/04/22 08:42:18;;;;;;;;;;;9.30;99.90;;;9.32;49.46;101231.75;5495688;26;19943;-85
2024/04/22 08:44:44;;;;;;;;;;;9.30;99.90;;;9.39;49.55;101232.66;5498041;26;19927;-85
2024/04/22 08:47:13;;;;;;;;;;;9.40;99.90;;;9.40;49.38;101225.50;5533629;25;19995;-84
2024/04/22 08:49:39;;;;;;;;;;;9.50;99.90;;;9.44;49.04;101226.78;5533026;26;19938;-85
2024/04/22 08:52:09;;;;;;;;;;;9.50;99.90;;;9.39;48.18;101221.19;5532415;26;19995;-85
2024/04/22 08:54:35;;;;;;;;;;;9.50;99.90;;;9.32;48.38;101228.25;5531747;25;19927;-85
2024/04/22 08:57:04;;;;;;;;;;;9.40;99.90;;;9.28;48.27;101220.66;5532476;25;19959;-85
2024/04/22 08:59:33;;;;;;;;;;;9.30;99.90;;;9.36;49.41;101221.53;5533116;25;20410;-85
2024/04/22 09:02:03;;;;;;;;;;;9.40;99.90;;;9.38;48.27;101219.53;5503895;25;19977;-85
2024/04/22 09:04:29;;;;;;;;;;;9.50;99.90;;;9.41;48.30;101219.97;5532296;26;20383;-85
2024/04/22 09:06:58;;;;;;;;;;;9.50;99.90;;;9.36;48.16;101217.03;5533210;26;20318;-85
2024/04/22 09:09:24;;;;;;;;;;;9.50;99.90;;;9.29;46.97;101208.16;5532846;25;19934;-85
2024/04/22 09:11:53;;;;;;;;;;;9.40;99.90;;;9.17;47.41;101204.28;5532636;25;19935;-85
2024/04/22 09:14:20;;;;;;;;;;;9.30;99.90;;;9.18;48.11;101198.81;5507486;25;19939;-85
2024/04/22 09:16:51;;;;;;;;;;;9.20;99.90;;;9.16;47.79;101192.81;5495056;26;20296;-85
2024/04/22 09:19:21;;;;;;;;;;;9.20;99.90;;;9.16;47.22;101208.78;5509921;26;19931;-85
2024/04/22 09:21:50;;;;;;;;;;;9.20;99.90;;;9.12;46.37;101202.19;5513409;26;19938;-84
2024/04/22 09:24:16;;;;;;;;;;;9.10;99.90;;;9.09;46.46;101202.56;5495856;26;19928;-85
2024/04/22 09:26:45;;;;;;;;;;;9.10;99.90;;;9.02;45.56;101199.78;5495557;26;19928;-85
2024/04/22 09:29:15;;;;;;;;;;;9.00;99.90;;;8.94;46.46;101204.41;5495059;26;19935;-84
2024/04/22 09:31:46;;;;;;;;;;;8.90;99.90;;;8.89;46.60;101204.13;5493865;26;19974;-85
2024/04/22 09:34:17;;;;;;;;;;;8.80;99.90;;;8.89;48.03;101206.78;5495282;26;19935;-85
2024/04/22 09:36:47;;;;;;;;;;;8.80;99.90;;;8.85;46.94;101210.81;5496078;26;19955;-85
2024/04/22 09:39:14;;;;;;;;;;;8.70;99.90;;;8.77;46.89;101222.34;5495199;26;19936;-85
2024/04/22 09:41:44;;;;;;;;;;;8.70;99.90;;;8.75;48.08;101230.50;5495158;26;19936;-85
2024/04/22 09:44:10;;;;;;;;;;;8.60;99.90;;;8.69;50.27;101241.03;5495243;26;19935;-85
2024/04/22 09:46:40;;;;;;;;;;;8.60;99.90;;;8.55;52.39;101241.84;5495431;26;19936;-85
2024/04/22 09:49:07;;;;;;;;;;;8.40;99.90;;;8.46;55.19;101233.09;5495012;26;19956;-85
2024/04/22 09:51:41;;;;;;;;;;;8.30;99.90;;;8.47;55.33;101238.22;5495270;26;19931;-85
2024/04/22 09:54:07;;;;;;;;;;;8.30;99.90;;;8.45;54.43;101231.44;5516689;26;19960;-85
2024/04/22 09:56:39;;;;;;;;;;;8.30;99.90;;;8.38;54.23;101239.28;5531256;25;19927;-84
2024/04/22 09:59:06;;;;;;;;;;;8.10;99.90;;;8.29;54.43;101242.16;5532395;26;19936;-85
2024/04/22 10:01:35;;;;;;;;;;;8.10;99.90;;;8.31;54.78;101237.50;5531783;25;19936;-85
2024/04/22 10:04:01;;;;;;;;;;;8.10;99.90;;;8.36;55.10;101235.13;5532278;25;19938;-85
2024/04/22 10:06:31;;;;;;;;;;;8.10;99.90;;;8.40;55.49;101231.16;5532110;26;19935;-85
2024/04/22 10:09:00;;;;;;;;;;;8.20;99.90;;;8.43;55.12;101244.88;5528343;26;19976;-86
2024/04/22 10:11:32;;;;;;;;;;;8.20;99.90;;;8.22;54.10;101226.91;5528393;25;19935;-85
2024/04/22 10:14:08;;;;;;;;;;;8.10;99.90;;;8.36;56.38;101221.84;5531273;25;19927;-85
2024/04/22 10:16:36;;;;;;;;;;;8.10;99.90;;;8.44;55.45;101217.31;5531683;26;19927;-85
2024/04/22 10:19:03;;;;;;;;;;;8.20;99.90;;;8.57;56.00;101215.88;5531597;25;19959;-85
2024/04/22 10:21:32;;;;;;;;;;;8.40;99.90;;;8.64;55.74;101208.84;5531561;26;19937;-85
2024/04/22 10:24:00;;;;;;;;;;;8.50;99.90;;;8.76;55.98;101200.25;5532437;25;19928;-85
2024/04/22 10:26:29;;;;;;;;;;;8.70;99.90;;;8.86;55.98;101193.84;5530285;25;20398;-84
2024/04/22 10:28:57;;;;;;;;;;;8.70;99.90;;;8.84;56.02;101186.03;5495224;26;19935;-85
2024/04/22 10:31:26;;;;;;;;;;;8.80;99.90;;;8.74;55.71;101178.34;5493092;26;19935;-85
2024/04/22 10:34:02;;;;;;;;;;;8.80;99.90;;;8.86;56.00;101180.53;5494879;26;20260;-85
2024/04/22 10:36:28;;;;;;;;;;;8.90;99.90;;;8.95;55.54;101174.94;5495779;26;19927;-84
2024/04/22 10:38:57;;;;;;;;;;;8.90;99.90;;;9.02;56.39;101185.66;5494793;26;19928;-85
2024/04/22 10:41:26;;;;;;;;;;;9.00;99.90;;;9.06;55.82;101172.84;5493938;26;19928;-85
2024/04/22 10:43:55;;;;;;;;;;;9.10;99.90;;;9.07;54.53;101174.47;5500687;26;19935;-85
2024/04/22 10:46:21;;;;;;;;;;;9.10;99.90;;;9.09;55.12;101165.31;5498362;26;19940;-86
2024/04/22 10:48:49;;;;;;;;;;;9.10;99.90;;;9.11;56.53;101173.94;5495862;26;19928;-86
2024/04/22 10:51:16;;;;;;;;;;;9.20;99.90;;;9.08;54.99;101163.66;5494883;26;19960;-85
2024/04/22 10:53:45;;;;;;;;;;;9.20;99.90;;;9.08;56.13;101171.66;5497064;26;19928;-85
2024/04/22 10:56:11;;;;;;;;;;;9.20;99.90;;;9.12;55.53;101170.25;5500735;26;20022;-85
2024/04/22 10:58:43;;;;;;;;;;;9.20;99.90;;;8.97;55.59;101166.78;5498728;26;19927;-84
2024/04/22 11:01:10;;;;;;;;;;;9.10;99.90;;;8.89;55.86;101164.22;5512478;26;19927;-85
2024/04/22 11:03:39;;;;;;;;;;;9.00;99.90;;;8.84;57.15;101172.75;5529220;26;19931;-85
2024/04/22 11:06:07;;;;;;;;;;;8.90;99.90;;;8.80;57.26;101170.63;5535652;25;19928;-85
2024/04/22 11:08:35;;;;;;;;;;;8.80;99.90;;;8.68;57.11;101170.22;5535164;25;19951;-85
2024/04/22 11:11:02;;;;;;;;;;;8.70;99.90;;;8.54;58.46;101171.03;5536088;26;19933;-85
2024/04/22 11:13:32;;;;;;;;;;;8.60;99.90;;;8.56;58.90;101169.84;5516950;26;19973;-85
2024/04/22 11:16:08;;;;;;;;;;;8.50;99.90;;;8.55;60.18;101165.56;5500475;26;20371;-85
2024/04/22 11:18:37;;;;;;;;;;;8.40;99.90;;;8.63;60.06;101160.13;5517182;26;19928;-85
2024/04/22 11:21:04;;;;;;;;;;;8.50;99.90;;;8.68;60.41;101163.06;5508014;26;20274;-85
2024/04/22 11:23:33;;;;;;;;;;;8.60;99.90;;;8.76;60.57;101162.19;5524759;25;19927;-85
2024/04/22 11:25:59;;;;;;;;;;;8.70;99.90;;;8.76;59.83;101159.53;5535112;26;19999;-85
2024/04/22 11:28:28;;;;;;;;;;;8.70;99.90;;;8.88;61.59;101167.88;5533261;26;19977;-85
2024/04/22 11:30:54;;;;;;;;;;;8.80;99.90;;;9.00;61.19;101158.44;5534185;26;19934;-85
2024/04/22 11:33:26;;;;;;;;;;;8.90;99.90;;;8.92;60.35;101158.50;5533291;25;19927;-86